Impacts TAF Board
For situational awareness. Not to be used for flight planning purposes.
IDs:

KPNS - Pensacola Intl, FL, US

Issued at 1737 UTC 21 May 2022
Updated at 2117 UTC 21 May 2022
Potential Impact None Slight Moderate High
Time2053Z 21/22Z 21/23Z 22/00Z 22/01Z 22/02Z 22/03Z 22/04Z 22/05Z 22/06Z 22/07Z 22/08Z 22/09Z 22/10Z>>
Type OBS PRVL PRVL PRVL PRVL PRVL PRVL PRVL PRVL PRVL PRVL PRVL
  [PRB30]  
PRVL
  [PRB30]  
PRVL
  [PRB30]  
VIS 10 >6 >6 >6 >6 >6 >6 >6 >6 >6 >6 >6
  [5]  
>6
  [5]  
>6
  [5]  
CIG 50 -- -- 130 130 130 130 130 130 100 100 100
  [30]  
100
  [30]  
100
  [30]  
Cover OVC SCT SCT BKN BKN BKN BKN BKN BKN BKN BKN BKN
  [BKN]  
BKN
  [BKN]  
BKN
  [BKN]  
FltCat VFR VFR VFR VFR VFR VFR VFR VFR VFR VFR VFR VFR
  [MVFR]  
VFR
  [MVFR]  
VFR
  [MVFR]  
WX -- VCSH VCSH VCSH VCSH VCSH VCSH VCSH VCSH VCSH VCSH VCSH
  [TSRA]  
VCSH
  [TSRA]  
VCSH
  [TSRA]  
WDir 140 160 160 160 160 160 160 160 160 160 160 160
[160]
160
[160]
160
[160]
WSpd 11 15 15 15 15 15 15 15 15 10 10 10
  [10]  
10
  [10]  
10
  [10]  
WGst -- -- -- -- -- -- -- -- -- -- -- --
  [--]  
--
  [--]  
--
  [--]  
WSHgt -- -- -- -- -- -- -- -- -- -- -- --
[--]
--
[--]
--
[--]
WSDir -- -- -- -- -- -- -- -- -- -- -- --
[--]
--
[--]
--
[--]
WSSpd -- -- -- -- -- -- -- -- -- -- -- --
[--]
--
[--]
--
[--]
R08/26
XWnd -10 -15 -15 -15 -15 -15 -15 -15 -15 -10 -10 -10 -10 -10
XGst -- -- -- -- -- -- -- -- -- -- -- 0 0 0
R17/35
XWnd 5 2 2 2 2 2 2 2 2 1 1 1 1 1
XGst -- -- -- -- -- -- -- -- -- -- -- 0 0 0
Raw TAF
KPNS 211737Z 2118/2218 16015KT P6SM VCSH SCT022 SCT250
  TEMPO 2118/2122 4SM TSRA BKN030CB
  FM220000 16015KT P6SM VCSH SCT030 BKN130
  FM220600 16010KT P6SM VCSH SCT025 BKN100
  PROB30 2208/2214 5SM TSRA BKN030CB
  FM221400 17011KT P6SM VCTS BKN030CB BKN100
  TEMPO 2214/2218 3SM TSRA BKN030CB


Raw METAR
KPNS 212053Z 14011KT 10SM BKN050 OVC060 28/21 A3008 RMK AO2 SLP187 T02830206 58005
KPNS 212000Z 16014G21KT 10SM FEW024 OVC046 29/21 A3010 RMK AO2 LTG DSNT N PRESFR T02890206
KPNS 211953Z 16014KT 10SM BKN022 29/22 A3011 RMK AO2 LTG DSNT N AND NW SLP196 T02890217
KPNS 211936Z 16013G22KT 10SM VCTS BKN022 29/22 A3012 RMK AO2 T02890217
KPNS 211906Z 18016KT 10SM SCT022 SCT029 OVC041 29/22 A3012 RMK AO2 T02890222
KPNS 211853Z 18015G22KT 10SM BKN022 BKN028 OVC039 28/23 A3011 RMK AO2 SLP198 T02830228

METAR Board
Radar Display
Forecast Discussion
For situational awareness. Not to be used for flight planning purposes.